Terminal Aerodrome Forecast
Issued by NWS

Home | Current Version | Previous Version | Graphics & Text | Print | Product List | Glossary On
Versions: 1 2 3 4 5 6 7 8 9 10 11 12 13 14 15 16 17 18
000
FTUS43 KMPX 011700
TAFAXN
TAF
KAXN 011721Z 0118/0218 30010KT P6SM FEW050
     FM020000 28005KT P6SM SCT050 BKN090
     FM021500 25010KT P6SM FEW250=

USA.gov is the U.S. government's official web portal to all federal, state and local government web resources and services.